METAR* REPORTS - Stations within 60 miles

(*Meteorological Terminal Aviation Routine weather report)

 

KRDG - Reading, Pennsylvania, USA
Distance from station: SE 19mi, 31km
Updated: Sun, 18-Nov-2018 2:54pm EST
Overcast
Overcast
 Wind from SSE
Wind: SSE 7 mph , 11 km/h
Temperature: 43°F , 6°C
Wind Chill: 39°F , 4°C
Dew Point: 34°F , 1°C
Humidity: 71%
Barometer: 30.25 inHg , 1024.4 hPa
Clouds: Overcast
Visibility: 10 miles , 16 km
Cloud details: Overcast 3300 ft
2018/11/18 19:54 KRDG 181954Z 15006KT 10SM OVC033 06/01 A3025 RMK AO2 SLP249 T00610011
KLNS - Lancaster, Pennsylvania, USA
Distance from station: S 33mi, 53km
Updated: Sun, 18-Nov-2018 3:31pm EST
Overcast
Overcast
 Wind from S
Wind: S 8 mph , 13 km/h
Temperature: 46°F , 8°C
Wind Chill: 42°F , 6°C
Dew Point: 36°F , 2°C
Humidity: 66%
Barometer: 30.24 inHg , 1024 hPa
Clouds: Overcast
Visibility: 10 miles , 16 km
Cloud details: Overcast 2900 ft
2018/11/18 20:31 KLNS 182031Z 17007KT 10SM OVC029 08/02 A3024 RMK AO2 T00780017
 
KSEG - Selinsgrove, Pennsylvania, USA
Distance from station: WNW 39mi, 62km
Updated: Sun, 18-Nov-2018 2:53pm EST
Overcast
Overcast
 Wind from SSW
Wind: SSW 6 mph , 9 km/h
Temperature: 39°F , 4°C
Wind Chill: 35°F , 2°C
Dew Point: 30°F , -1°C
Humidity: 70%
Barometer: 30.24 inHg , 1024 hPa
Clouds: Overcast
Visibility: 10 miles , 16 km
Cloud details: Overcast 2900 ft
2018/11/18 19:53 KSEG 181953Z AUTO 20005KT 10SM OVC029 04/M01 A3024 RMK AO2 SLP243 T00441006
KABE - Allentown, Pennsylvania, USA
Distance from station: E 39mi, 63km
Updated: Sun, 18-Nov-2018 2:51pm EST
Overcast
Overcast
 Wind from ESE
Wind: ESE 7 mph , 11 km/h
Temperature: 41°F , 5°C
Wind Chill: 36°F , 2°C
Dew Point: 27°F , -3°C
Humidity: 57%
Barometer: 30.27 inHg , 1025.1 hPa
Clouds: Overcast
Visibility: 10 miles , 16 km
Cloud details: Overcast 3400 ft
2018/11/18 19:51 KABE 181951Z 11006KT 10SM OVC034 05/M03 A3027 RMK AO2 SLP252 T00501028
 
KMDT - Middletown, Pennsylvania, USA
Distance from station: SW 40mi, 65km
Updated: Sun, 18-Nov-2018 2:56pm EST
Overcast
Overcast
 Wind from SE
Wind: SE 5 mph , 7 km/h
Temperature: 45°F , 7°C
Wind Chill: 42°F , 6°C
Dew Point: 34°F , 1°C
Humidity: 66%
Barometer: 30.23 inHg , 1023.7 hPa
Clouds: Overcast
Visibility: 10 miles , 16 km
Cloud details: Overcast 3100 ft
2018/11/18 19:56 KMDT 181956Z 13004KT 10SM OVC031 07/01 A3023 RMK AO2 SLP240 T00670011
KPTW - Pottstown, Pennsylvania, USA
Distance from station: SE 42mi, 67km
Updated: Sun, 18-Nov-2018 2:54pm EST
Overcast
Overcast
 Wind from varies
Wind: varies 3 mph , 6 km/h
Temperature: 43°F , 6°C
Dew Point: 30°F , -1°C
Humidity: 61%
Barometer: 30.28 inHg , 1025.4 hPa
Clouds: Overcast
Visibility: 10 miles , 16 km
Cloud details: Overcast 3600 ft
2018/11/18 19:54 KPTW 181954Z AUTO VRB03KT 10SM OVC036 06/M01 A3028 RMK AO2 SLP255 T00611011
 
KCXY - Harrisburg, Pennsylvania, USA
Distance from station: SW 43mi, 69km
Updated: Sun, 18-Nov-2018 2:56pm EST
Overcast
Overcast
 Wind from ESE
Wind: ESE 5 mph , 7 km/h
Temperature: 43°F , 6°C
Wind Chill: 40°F , 4°C
Dew Point: 34°F , 1°C
Humidity: 71%
Barometer: 30.24 inHg , 1024 hPa
Clouds: Overcast
Visibility: 10 miles , 16 km
Cloud details: Overcast 3000 ft
2018/11/18 19:56 KCXY 181956Z 11004KT 10SM OVC030 06/01 A3024 RMK AO2 SLP243 T00610006
KUKT - Quakertown Arp, Pennsylvania, USA
Distance from station: ESE 44mi, 70km
Updated: Sun, 18-Nov-2018 3:35pm EST
Mostly Cloudy
Mostly Cloudy
 Wind from calm
Wind: Calm
Temperature: 41°F , 5°C
Dew Point: 30°F , -1°C
Humidity: 66%
Barometer: 30.26 inHg , 1024.7 hPa
Clouds: Mostly Cloudy
Visibility: 10 miles , 16 km
Cloud details: Mostly Cloudy 3300 ft
2018/11/18 20:35 KUKT 182035Z AUTO 00000KT 10SM BKN033 05/M01 A3026 RMK A01
 
KMQS - Coatesville, Pennsylvania, USA
Distance from station: SSE 45mi, 72km
Updated: Sun, 18-Nov-2018 3:15pm EST
Overcast
Overcast
 Wind from varies
Wind: varies 3 mph , 6 km/h
Temperature: 45°F , 7°C
Dew Point: 34°F , 1°C
Humidity: 66%
Barometer: 30.26 inHg , 1024.7 hPa
Clouds: Overcast
Visibility: 10 miles , 16 km
Cloud details: Overcast 3000 ft
2018/11/18 20:15 KMQS 182015Z AUTO VRB03KT 10SM OVC030 07/01 A3026 RMK AO2
KMPO - Mt. Pocono, Pennsylvania, USA
Distance from station: NE 57mi, 92km
Updated: Sun, 18-Nov-2018 2:53pm EST
Overcast
Overcast
 Wind from SE
Wind: SE 6 mph , 9 km/h
Temperature: 30°F , -1°C
Wind Chill: 24°F , -4°C
Dew Point: 25°F , -4°C
Humidity: 80%
Barometer: 30.21 inHg , 1023 hPa
Clouds: Overcast
Visibility: 10 miles , 16 km
Cloud details: Overcast 2100 ft
2018/11/18 19:53 KMPO 181953Z AUTO 13005KT 10SM OVC021 M01/M04 A3021 RMK AO2 SLP251 T10061044
 
KAVP - Avoca/Wilkes B., Pennsylvania, USA
Distance from station: NNE 58mi, 93km
Updated: Sun, 18-Nov-2018 3:15pm EST
Overcast
Overcast
 Wind from calm
Wind: Calm
Temperature: 37°F , 3°C
Dew Point: 27°F , -3°C
Humidity: 65%
Barometer: 30.22 inHg , 1023.4 hPa
Clouds: Overcast
Visibility: 10 miles , 16 km
Cloud details: Overcast 2900 ft
2018/11/18 20:15 KAVP 182015Z 00000KT 10SM OVC029 03/M03 A3022 RMK AO2 T00331033
KTHV - York, Pennsylvania, USA
Distance from station: SW 59mi, 94km
Updated: Sun, 18-Nov-2018 2:53pm EST
Overcast
Overcast
 Wind from SSE
Wind: SSE 6 mph , 9 km/h
Temperature: 45°F , 7°C
Wind Chill: 42°F , 6°C
Dew Point: 36°F , 2°C
Humidity: 71%
Barometer: 30.23 inHg , 1023.7 hPa
Clouds: Overcast
Visibility: 10 miles , 16 km
Cloud details: Overcast 2700 ft
2018/11/18 19:53 KTHV 181953Z AUTO 16005KT 10SM OVC027 07/02 A3023 RMK AO2 SLP243 T00670017 $
 
KDYL - Doylestown, Pennsylvania, USA
Distance from station: ESE 59mi, 95km
Updated: Sun, 18-Nov-2018 2:54pm EST
Overcast
Overcast
 Wind from calm
Wind: Calm
Temperature: 43°F , 6°C
Dew Point: 28°F , -2°C
Humidity: 57%
Barometer: 30.27 inHg , 1025.1 hPa
Clouds: Overcast
Visibility: 10 miles , 16 km
Cloud details: Overcast 3600 ft
2018/11/18 19:54 KDYL 181954Z AUTO 00000KT 10SM OVC036 06/M02 A3027 RMK AO2 SLP257 T00561017
KIPT - Williamsport, Pennsylvania, USA
Distance from station: NW 60mi, 96km
Updated: Sun, 18-Nov-2018 2:54pm EST
Overcast
Overcast
 Wind from ENE
Wind: ENE 10 mph , 17 km/h
Temperature: 39°F , 4°C
Wind Chill: 32°F , 0°C
Dew Point: 30°F , -1°C
Humidity: 70%
Barometer: 30.21 inHg , 1023 hPa
Clouds: Overcast
Visibility: 10 miles , 16 km
Cloud details: Overcast 2500 ft
2018/11/18 19:54 KIPT 181954Z 07009KT 10SM OVC025 04/M01 A3021 RMK AO2 SLP235 T00391011